sensor_id;sensor_type;location;lat;lon;timestamp;temperature;humidity
64499;SHT31;51087;55.718;21.122;2023-04-16T00:01:47;8.63;74.15
64499;SHT31;51087;55.718;21.122;2023-04-16T00:04:12;8.59;74.28
64499;SHT31;51087;55.718;21.122;2023-04-16T00:06:38;8.62;74.45
64499;SHT31;51087;55.718;21.122;2023-04-16T00:09:03;8.59;74.51
64499;SHT31;51087;55.718;21.122;2023-04-16T00:11:29;8.62;74.43
64499;SHT31;51087;55.718;21.122;2023-04-16T00:13:54;8.61;74.48
64499;SHT31;51087;55.718;21.122;2023-04-16T00:16:19;8.58;74.67
64499;SHT31;51087;55.718;21.122;2023-04-16T00:18:45;8.53;74.87
64499;SHT31;51087;55.718;21.122;2023-04-16T00:21:11;8.49;75.08
64499;SHT31;51087;55.718;21.122;2023-04-16T00:23:36;8.49;75.21
64499;SHT31;51087;55.718;21.122;2023-04-16T00:26:02;8.49;75.07
64499;SHT31;51087;55.718;21.122;2023-04-16T00:28:28;8.51;75.10
64499;SHT31;51087;55.718;21.122;2023-04-16T00:30:54;8.51;74.92
64499;SHT31;51087;55.718;21.122;2023-04-16T00:33:19;8.52;74.93
64499;SHT31;51087;55.718;21.122;2023-04-16T00:35:45;8.51;74.94
64499;SHT31;51087;55.718;21.122;2023-04-16T00:38:11;8.52;74.82
64499;SHT31;51087;55.718;21.122;2023-04-16T00:40:37;8.55;75.12
64499;SHT31;51087;55.718;21.122;2023-04-16T00:43:02;8.53;75.10
64499;SHT31;51087;55.718;21.122;2023-04-16T00:45:28;8.51;75.22
64499;SHT31;51087;55.718;21.122;2023-04-16T00:47:54;8.56;75.26
64499;SHT31;51087;55.718;21.122;2023-04-16T00:50:20;8.52;74.99
64499;SHT31;51087;55.718;21.122;2023-04-16T00:52:47;8.52;75.14
64499;SHT31;51087;55.718;21.122;2023-04-16T00:55:14;8.48;75.28
64499;SHT31;51087;55.718;21.122;2023-04-16T00:57:39;8.44;75.34
64499;SHT31;51087;55.718;21.122;2023-04-16T01:00:05;8.41;75.62
64499;SHT31;51087;55.718;21.122;2023-04-16T01:02:32;8.35;75.64
64499;SHT31;51087;55.718;21.122;2023-04-16T01:04:59;8.37;75.86
64499;SHT31;51087;55.718;21.122;2023-04-16T01:07:24;8.38;75.90
64499;SHT31;51087;55.718;21.122;2023-04-16T01:09:50;8.41;75.94
64499;SHT31;51087;55.718;21.122;2023-04-16T01:12:15;8.35;75.90
64499;SHT31;51087;55.718;21.122;2023-04-16T01:14:41;8.34;76.01
64499;SHT31;51087;55.718;21.122;2023-04-16T01:17:06;8.28;76.20
64499;SHT31;51087;55.718;21.122;2023-04-16T01:19:31;8.28;76.28
64499;SHT31;51087;55.718;21.122;2023-04-16T01:22:00;8.25;76.33
64499;SHT31;51087;55.718;21.122;2023-04-16T01:24:26;8.24;76.38
64499;SHT31;51087;55.718;21.122;2023-04-16T01:26:51;8.20;76.58
64499;SHT31;51087;55.718;21.122;2023-04-16T01:29:17;8.13;76.82
64499;SHT31;51087;55.718;21.122;2023-04-16T01:31:42;8.06;77.12
64499;SHT31;51087;55.718;21.122;2023-04-16T01:34:07;8.01;77.32
64499;SHT31;51087;55.718;21.122;2023-04-16T01:36:33;7.91;77.63
64499;SHT31;51087;55.718;21.122;2023-04-16T01:38:58;7.86;77.94
64499;SHT31;51087;55.718;21.122;2023-04-16T01:41:24;7.80;78.25
64499;SHT31;51087;55.718;21.122;2023-04-16T01:43:49;7.77;78.34
64499;SHT31;51087;55.718;21.122;2023-04-16T01:46:20;7.75;78.46
64499;SHT31;51087;55.718;21.122;2023-04-16T01:48:47;7.72;78.73
64499;SHT31;51087;55.718;21.122;2023-04-16T01:51:13;7.66;78.88
64499;SHT31;51087;55.718;21.122;2023-04-16T01:53:38;7.65;79.15
64499;SHT31;51087;55.718;21.122;2023-04-16T01:56:04;7.66;79.26
64499;SHT31;51087;55.718;21.122;2023-04-16T01:58:31;7.61;79.45
64499;SHT31;51087;55.718;21.122;2023-04-16T02:00:57;7.62;79.66
64499;SHT31;51087;55.718;21.122;2023-04-16T02:03:22;7.63;79.72
64499;SHT31;51087;55.718;21.122;2023-04-16T02:05:49;7.58;79.82
64499;SHT31;51087;55.718;21.122;2023-04-16T02:08:15;7.54;79.92
64499;SHT31;51087;55.718;21.122;2023-04-16T02:10:40;7.56;80.10
64499;SHT31;51087;55.718;21.122;2023-04-16T02:13:06;7.58;79.90
64499;SHT31;51087;55.718;21.122;2023-04-16T02:15:31;7.55;79.88
64499;SHT31;51087;55.718;21.122;2023-04-16T02:17:56;7.52;79.92
64499;SHT31;51087;55.718;21.122;2023-04-16T02:20:22;7.59;79.63
64499;SHT31;51087;55.718;21.122;2023-04-16T02:22:47;7.62;79.82
64499;SHT31;51087;55.718;21.122;2023-04-16T02:25:13;7.65;79.32
64499;SHT31;51087;55.718;21.122;2023-04-16T02:27:38;7.66;78.90
64499;SHT31;51087;55.718;21.122;2023-04-16T02:30:04;7.72;78.60
64499;SHT31;51087;55.718;21.122;2023-04-16T02:32:30;7.70;77.86
64499;SHT31;51087;55.718;21.122;2023-04-16T02:34:55;7.73;77.46
64499;SHT31;51087;55.718;21.122;2023-04-16T02:37:24;7.72;77.78
64499;SHT31;51087;55.718;21.122;2023-04-16T02:39:50;7.77;77.71
64499;SHT31;51087;55.718;21.122;2023-04-16T02:42:15;7.70;77.55
64499;SHT31;51087;55.718;21.122;2023-04-16T02:44:41;7.70;77.56
64499;SHT31;51087;55.718;21.122;2023-04-16T02:47:06;7.70;77.50
64499;SHT31;51087;55.718;21.122;2023-04-16T02:49:32;7.69;77.31
64499;SHT31;51087;55.718;21.122;2023-04-16T02:51:57;7.68;77.42
64499;SHT31;51087;55.718;21.122;2023-04-16T02:54:23;7.68;77.23
64499;SHT31;51087;55.718;21.122;2023-04-16T02:56:48;7.65;77.04
64499;SHT31;51087;55.718;21.122;2023-04-16T02:59:13;7.68;76.83
64499;SHT31;51087;55.718;21.122;2023-04-16T03:01:39;7.63;76.95
64499;SHT31;51087;55.718;21.122;2023-04-16T03:04:04;7.59;77.24
64499;SHT31;51087;55.718;21.122;2023-04-16T03:06:30;7.58;77.35
64499;SHT31;51087;55.718;21.122;2023-04-16T03:08:55;7.59;77.39
64499;SHT31;51087;55.718;21.122;2023-04-16T03:11:21;7.54;77.53
64499;SHT31;51087;55.718;21.122;2023-04-16T03:13:47;7.52;77.45
64499;SHT31;51087;55.718;21.122;2023-04-16T03:16:13;7.44;77.70
64499;SHT31;51087;55.718;21.122;2023-04-16T03:18:38;7.39;78.02
64499;SHT31;51087;55.718;21.122;2023-04-16T03:21:04;7.34;78.28
64499;SHT31;51087;55.718;21.122;2023-04-16T03:23:29;7.28;78.52
64499;SHT31;51087;55.718;21.122;2023-04-16T03:25:55;7.20;78.80
64499;SHT31;51087;55.718;21.122;2023-04-16T03:28:20;7.17;78.90
64499;SHT31;51087;55.718;21.122;2023-04-16T03:30:52;7.05;79.19
64499;SHT31;51087;55.718;21.122;2023-04-16T03:33:18;7.08;79.51
64499;SHT31;51087;55.718;21.122;2023-04-16T03:35:44;7.04;79.59
64499;SHT31;51087;55.718;21.122;2023-04-16T03:38:09;7.03;79.51
64499;SHT31;51087;55.718;21.122;2023-04-16T03:40:35;6.94;79.87
64499;SHT31;51087;55.718;21.122;2023-04-16T03:43:00;6.86;80.16
64499;SHT31;51087;55.718;21.122;2023-04-16T03:45:26;6.84;80.29
64499;SHT31;51087;55.718;21.122;2023-04-16T03:47:51;6.79;80.34
64499;SHT31;51087;55.718;21.122;2023-04-16T03:50:20;6.77;80.50
64499;SHT31;51087;55.718;21.122;2023-04-16T03:52:45;6.77;80.57
64499;SHT31;51087;55.718;21.122;2023-04-16T03:55:13;6.77;80.31
64499;SHT31;51087;55.718;21.122;2023-04-16T03:57:39;6.83;80.32
64499;SHT31;51087;55.718;21.122;2023-04-16T04:00:05;6.82;80.48
64499;SHT31;51087;55.718;21.122;2023-04-16T04:02:30;6.86;80.42
64499;SHT31;51087;55.718;21.122;2023-04-16T04:04:56;6.87;80.59
64499;SHT31;51087;55.718;21.122;2023-04-16T04:07:21;6.96;80.55
64499;SHT31;51087;55.718;21.122;2023-04-16T04:09:46;6.99;80.44
64499;SHT31;51087;55.718;21.122;2023-04-16T04:12:12;6.99;80.58
64499;SHT31;51087;55.718;21.122;2023-04-16T04:14:37;7.08;80.20
64499;SHT31;51087;55.718;21.122;2023-04-16T04:17:04;7.20;80.27
64499;SHT31;51087;55.718;21.122;2023-04-16T04:19:30;7.22;79.81
64499;SHT31;51087;55.718;21.122;2023-04-16T04:21:55;7.25;79.57
64499;SHT31;51087;55.718;21.122;2023-04-16T04:24:21;7.36;79.65
64499;SHT31;51087;55.718;21.122;2023-04-16T04:26:46;7.41;79.49
64499;SHT31;51087;55.718;21.122;2023-04-16T04:29:12;7.45;79.29
64499;SHT31;51087;55.718;21.122;2023-04-16T04:31:37;7.51;79.05
64499;SHT31;51087;55.718;21.122;2023-04-16T04:34:03;7.51;79.10
64499;SHT31;51087;55.718;21.122;2023-04-16T04:36:28;7.54;79.05
64499;SHT31;51087;55.718;21.122;2023-04-16T04:38:54;7.61;78.98
64499;SHT31;51087;55.718;21.122;2023-04-16T04:41:19;7.65;78.87
64499;SHT31;51087;55.718;21.122;2023-04-16T04:43:45;7.70;78.64
64499;SHT31;51087;55.718;21.122;2023-04-16T04:46:11;7.72;78.73
64499;SHT31;51087;55.718;21.122;2023-04-16T04:48:36;7.77;78.90
64499;SHT31;51087;55.718;21.122;2023-04-16T04:51:02;7.75;78.74
64499;SHT31;51087;55.718;21.122;2023-04-16T04:53:28;7.79;78.83
64499;SHT31;51087;55.718;21.122;2023-04-16T04:55:54;7.85;78.74
64499;SHT31;51087;55.718;21.122;2023-04-16T04:58:19;7.89;78.36
64499;SHT31;51087;55.718;21.122;2023-04-16T05:00:45;7.96;78.27
64499;SHT31;51087;55.718;21.122;2023-04-16T05:03:10;8.01;78.28
64499;SHT31;51087;55.718;21.122;2023-04-16T05:05:40;8.03;77.77
64499;SHT31;51087;55.718;21.122;2023-04-16T05:08:05;8.03;77.49
64499;SHT31;51087;55.718;21.122;2023-04-16T05:10:31;8.13;77.32
64499;SHT31;51087;55.718;21.122;2023-04-16T05:12:56;8.18;77.18
64499;SHT31;51087;55.718;21.122;2023-04-16T05:15:22;8.25;77.08
64499;SHT31;51087;55.718;21.122;2023-04-16T05:17:47;8.25;77.07
64499;SHT31;51087;55.718;21.122;2023-04-16T05:20:13;8.30;77.13
64499;SHT31;51087;55.718;21.122;2023-04-16T05:22:38;8.07;76.84
64499;SHT31;51087;55.718;21.122;2023-04-16T05:25:04;8.14;76.99
64499;SHT31;51087;55.718;21.122;2023-04-16T05:27:30;8.21;77.03
64499;SHT31;51087;55.718;21.122;2023-04-16T05:29:55;8.27;76.77
64499;SHT31;51087;55.718;21.122;2023-04-16T05:32:21;8.23;77.00
64499;SHT31;51087;55.718;21.122;2023-04-16T05:34:47;8.31;76.95
64499;SHT31;51087;55.718;21.122;2023-04-16T05:37:12;8.28;77.01
64499;SHT31;51087;55.718;21.122;2023-04-16T05:39:38;8.30;77.20
64499;SHT31;51087;55.718;21.122;2023-04-16T05:42:03;8.41;77.19
64499;SHT31;51087;55.718;21.122;2023-04-16T05:44:28;8.51;77.01
64499;SHT31;51087;55.718;21.122;2023-04-16T05:46:54;8.61;77.01
64499;SHT31;51087;55.718;21.122;2023-04-16T05:49:19;8.68;77.09
64499;SHT31;51087;55.718;21.122;2023-04-16T05:51:46;8.59;76.97
64499;SHT31;51087;55.718;21.122;2023-04-16T05:54:12;8.66;76.84
64499;SHT31;51087;55.718;21.122;2023-04-16T05:56:37;8.66;76.86
64499;SHT31;51087;55.718;21.122;2023-04-16T05:59:02;8.66;76.97
64499;SHT31;51087;55.718;21.122;2023-04-16T06:01:28;8.52;76.61
64499;SHT31;51087;55.718;21.122;2023-04-16T06:03:53;8.45;76.47
64499;SHT31;51087;55.718;21.122;2023-04-16T06:06:19;8.38;77.12
64499;SHT31;51087;55.718;21.122;2023-04-16T06:08:44;8.35;76.87
64499;SHT31;51087;55.718;21.122;2023-04-16T06:11:10;8.25;77.00
64499;SHT31;51087;55.718;21.122;2023-04-16T06:13:36;8.25;77.63
64499;SHT31;51087;55.718;21.122;2023-04-16T06:16:01;8.33;77.58
64499;SHT31;51087;55.718;21.122;2023-04-16T06:18:26;8.30;77.48
64499;SHT31;51087;55.718;21.122;2023-04-16T06:20:52;8.35;75.77
64499;SHT31;51087;55.718;21.122;2023-04-16T06:23:18;8.45;75.40
64499;SHT31;51087;55.718;21.122;2023-04-16T06:25:43;8.59;74.71
64499;SHT31;51087;55.718;21.122;2023-04-16T06:28:08;8.61;74.20
64499;SHT31;51087;55.718;21.122;2023-04-16T06:30:34;8.80;73.92
64499;SHT31;51087;55.718;21.122;2023-04-16T06:32:59;8.96;73.44
64499;SHT31;51087;55.718;21.122;2023-04-16T06:35:25;9.09;72.90
64499;SHT31;51087;55.718;21.122;2023-04-16T06:37:50;9.18;72.16
64499;SHT31;51087;55.718;21.122;2023-04-16T06:40:16;9.23;72.21
64499;SHT31;51087;55.718;21.122;2023-04-16T06:42:41;9.26;72.35
64499;SHT31;51087;55.718;21.122;2023-04-16T06:45:07;9.39;72.09
64499;SHT31;51087;55.718;21.122;2023-04-16T06:47:33;9.42;71.75
64499;SHT31;51087;55.718;21.122;2023-04-16T06:49:58;9.34;71.53
64499;SHT31;51087;55.718;21.122;2023-04-16T06:52:24;9.11;72.20
64499;SHT31;51087;55.718;21.122;2023-04-16T06:54:49;9.03;72.68
64499;SHT31;51087;55.718;21.122;2023-04-16T06:57:15;9.11;72.62
64499;SHT31;51087;55.718;21.122;2023-04-16T06:59:40;9.06;72.95
64499;SHT31;51087;55.718;21.122;2023-04-16T07:02:10;9.14;73.02
64499;SHT31;51087;55.718;21.122;2023-04-16T07:04:35;8.93;73.48
64499;SHT31;51087;55.718;21.122;2023-04-16T07:07:01;8.86;73.69
64499;SHT31;51087;55.718;21.122;2023-04-16T07:09:26;9.17;72.93
64499;SHT31;51087;55.718;21.122;2023-04-16T07:11:52;9.38;72.46
64499;SHT31;51087;55.718;21.122;2023-04-16T07:14:18;9.51;72.38
64499;SHT31;51087;55.718;21.122;2023-04-16T07:16:43;9.61;72.25
64499;SHT31;51087;55.718;21.122;2023-04-16T07:19:08;9.75;71.81
64499;SHT31;51087;55.718;21.122;2023-04-16T07:21:34;9.94;71.28
64499;SHT31;51087;55.718;21.122;2023-04-16T07:23:59;9.85;71.16
64499;SHT31;51087;55.718;21.122;2023-04-16T07:26:25;9.72;71.12
64499;SHT31;51087;55.718;21.122;2023-04-16T07:28:50;9.71;71.14
64499;SHT31;51087;55.718;21.122;2023-04-16T07:31:16;9.68;71.38
64499;SHT31;51087;55.718;21.122;2023-04-16T07:33:41;9.63;71.46
64499;SHT31;51087;55.718;21.122;2023-04-16T07:36:07;9.62;71.56
64499;SHT31;51087;55.718;21.122;2023-04-16T07:38:32;9.79;71.05
64499;SHT31;51087;55.718;21.122;2023-04-16T07:40:59;9.82;70.60
64499;SHT31;51087;55.718;21.122;2023-04-16T07:43:24;9.73;70.70
64499;SHT31;51087;55.718;21.122;2023-04-16T07:45:50;9.68;71.98
64499;SHT31;51087;55.718;21.122;2023-04-16T07:48:16;9.51;72.43
64499;SHT31;51087;55.718;21.122;2023-04-16T07:50:41;9.41;71.03
64499;SHT31;51087;55.718;21.122;2023-04-16T07:53:10;9.63;69.92
64499;SHT31;51087;55.718;21.122;2023-04-16T07:55:35;9.26;70.97
64499;SHT31;51087;55.718;21.122;2023-04-16T07:58:01;9.55;70.81
64499;SHT31;51087;55.718;21.122;2023-04-16T08:00:31;9.35;70.78
64499;SHT31;51087;55.718;21.122;2023-04-16T08:02:57;9.30;71.35
64499;SHT31;51087;55.718;21.122;2023-04-16T08:05:22;9.04;72.47
64499;SHT31;51087;55.718;21.122;2023-04-16T08:07:47;9.00;73.36
64499;SHT31;51087;55.718;21.122;2023-04-16T08:10:13;9.31;73.16
64499;SHT31;51087;55.718;21.122;2023-04-16T08:12:38;9.52;72.85
64499;SHT31;51087;55.718;21.122;2023-04-16T08:15:04;9.62;73.55
64499;SHT31;51087;55.718;21.122;2023-04-16T08:17:30;9.65;73.14
64499;SHT31;51087;55.718;21.122;2023-04-16T08:19:55;9.54;73.08
64499;SHT31;51087;55.718;21.122;2023-04-16T08:22:21;9.49;73.88
64499;SHT31;51087;55.718;21.122;2023-04-16T08:24:46;9.68;73.12
64499;SHT31;51087;55.718;21.122;2023-04-16T08:27:12;9.72;73.83
64499;SHT31;51087;55.718;21.122;2023-04-16T08:29:37;9.75;73.79
64499;SHT31;51087;55.718;21.122;2023-04-16T08:32:02;9.47;74.14
64499;SHT31;51087;55.718;21.122;2023-04-16T08:34:28;9.10;75.52
64499;SHT31;51087;55.718;21.122;2023-04-16T08:36:53;8.91;77.19
64499;SHT31;51087;55.718;21.122;2023-04-16T08:39:20;8.73;77.64
64499;SHT31;51087;55.718;21.122;2023-04-16T08:41:46;8.90;77.60
64499;SHT31;51087;55.718;21.122;2023-04-16T08:44:36;8.69;78.21
64499;SHT31;51087;55.718;21.122;2023-04-16T08:47:05;8.55;79.18
64499;SHT31;51087;55.718;21.122;2023-04-16T08:49:35;8.38;78.80
64499;SHT31;51087;55.718;21.122;2023-04-16T08:52:03;8.17;80.04
64499;SHT31;51087;55.718;21.122;2023-04-16T08:54:36;7.97;81.45
64499;SHT31;51087;55.718;21.122;2023-04-16T08:57:05;7.79;80.81
64499;SHT31;51087;55.718;21.122;2023-04-16T08:59:31;7.91;81.74
64499;SHT31;51087;55.718;21.122;2023-04-16T09:01:57;7.90;82.00
64499;SHT31;51087;55.718;21.122;2023-04-16T09:04:25;7.86;82.00
64499;SHT31;51087;55.718;21.122;2023-04-16T09:06:55;7.76;83.30
64499;SHT31;51087;55.718;21.122;2023-04-16T09:09:22;8.10;83.23
64499;SHT31;51087;55.718;21.122;2023-04-16T09:11:51;8.27;82.51
64499;SHT31;51087;55.718;21.122;2023-04-16T09:14:18;8.11;82.47
64499;SHT31;51087;55.718;21.122;2023-04-16T09:16:47;8.08;82.86
64499;SHT31;51087;55.718;21.122;2023-04-16T09:19:14;8.25;82.29
64499;SHT31;51087;55.718;21.122;2023-04-16T09:21:40;8.56;82.38
64499;SHT31;51087;55.718;21.122;2023-04-16T09:24:09;8.84;81.09
64499;SHT31;51087;55.718;21.122;2023-04-16T09:26:35;8.58;80.76
64499;SHT31;51087;55.718;21.122;2023-04-16T09:29:01;8.53;80.90
64499;SHT31;51087;55.718;21.122;2023-04-16T09:31:26;8.58;81.33
64499;SHT31;51087;55.718;21.122;2023-04-16T09:34:07;8.31;81.95
64499;SHT31;51087;55.718;21.122;2023-04-16T09:36:35;8.11;83.40
64499;SHT31;51087;55.718;21.122;2023-04-16T09:39:01;8.24;82.67
64499;SHT31;51087;55.718;21.122;2023-04-16T09:41:32;8.24;82.16
64499;SHT31;51087;55.718;21.122;2023-04-16T09:44:03;8.11;81.64
64499;SHT31;51087;55.718;21.122;2023-04-16T09:46:39;7.96;82.18
64499;SHT31;51087;55.718;21.122;2023-04-16T09:49:15;8.03;82.82
64499;SHT31;51087;55.718;21.122;2023-04-16T09:51:41;8.24;82.67
64499;SHT31;51087;55.718;21.122;2023-04-16T09:54:07;8.51;81.56
64499;SHT31;51087;55.718;21.122;2023-04-16T09:56:39;8.34;82.87
64499;SHT31;51087;55.718;21.122;2023-04-16T09:59:04;8.42;81.88
64499;SHT31;51087;55.718;21.122;2023-04-16T10:01:30;8.18;82.97
64499;SHT31;51087;55.718;21.122;2023-04-16T10:03:55;8.06;83.26
64499;SHT31;51087;55.718;21.122;2023-04-16T10:06:23;7.98;83.53
64499;SHT31;51087;55.718;21.122;2023-04-16T10:08:53;7.93;83.44
64499;SHT31;51087;55.718;21.122;2023-04-16T10:11:26;7.79;84.17
64499;SHT31;51087;55.718;21.122;2023-04-16T10:13:51;7.79;85.11
64499;SHT31;51087;55.718;21.122;2023-04-16T10:16:17;7.75;84.07
64499;SHT31;51087;55.718;21.122;2023-04-16T10:18:44;7.72;84.91
64499;SHT31;51087;55.718;21.122;2023-04-16T10:21:09;7.86;85.12
64499;SHT31;51087;55.718;21.122;2023-04-16T10:23:39;7.82;86.11
64499;SHT31;51087;55.718;21.122;2023-04-16T10:26:05;7.96;85.41
64499;SHT31;51087;55.718;21.122;2023-04-16T10:28:31;8.01;86.46
64499;SHT31;51087;55.718;21.122;2023-04-16T10:31:01;8.13;85.21
64499;SHT31;51087;55.718;21.122;2023-04-16T10:33:29;7.97;85.33
64499;SHT31;51087;55.718;21.122;2023-04-16T10:36:14;7.83;84.36
64499;SHT31;51087;55.718;21.122;2023-04-16T10:38:48;7.75;85.23
64499;SHT31;51087;55.718;21.122;2023-04-16T10:41:14;7.73;85.29
64499;SHT31;51087;55.718;21.122;2023-04-16T10:43:42;7.75;85.02
64499;SHT31;51087;55.718;21.122;2023-04-16T10:46:25;7.73;86.89
64499;SHT31;51087;55.718;21.122;2023-04-16T10:48:59;7.68;84.88
64499;SHT31;51087;55.718;21.122;2023-04-16T10:51:34;7.66;84.97
64499;SHT31;51087;55.718;21.122;2023-04-16T10:54:17;7.66;85.30
64499;SHT31;51087;55.718;21.122;2023-04-16T10:56:44;7.89;83.05
64499;SHT31;51087;55.718;21.122;2023-04-16T10:59:12;8.06;82.25
64499;SHT31;51087;55.718;21.122;2023-04-16T11:01:49;8.04;82.66
64499;SHT31;51087;55.718;21.122;2023-04-16T11:15:04;8.80;81.81
64499;SHT31;51087;55.718;21.122;2023-04-16T11:20:21;8.63;82.66
64499;SHT31;51087;55.718;21.122;2023-04-16T11:22:48;8.79;82.77
64499;SHT31;51087;55.718;21.122;2023-04-16T11:25:29;8.83;82.37
64499;SHT31;51087;55.718;21.122;2023-04-16T11:27:56;8.71;82.88
64499;SHT31;51087;55.718;21.122;2023-04-16T11:30:37;9.01;83.48
64499;SHT31;51087;55.718;21.122;2023-04-16T11:35:30;9.26;81.88
64499;SHT31;51087;55.718;21.122;2023-04-16T11:37:56;9.48;81.94
64499;SHT31;51087;55.718;21.122;2023-04-16T11:40:23;9.58;80.43
64499;SHT31;51087;55.718;21.122;2023-04-16T11:42:49;9.34;79.95
64499;SHT31;51087;55.718;21.122;2023-04-16T11:45:15;9.37;80.03
64499;SHT31;51087;55.718;21.122;2023-04-16T11:47:45;9.14;82.71
64499;SHT31;51087;55.718;21.122;2023-04-16T11:50:18;8.93;80.63
64499;SHT31;51087;55.718;21.122;2023-04-16T11:52:44;8.87;79.56
64499;SHT31;51087;55.718;21.122;2023-04-16T11:55:11;8.80;78.42
64499;SHT31;51087;55.718;21.122;2023-04-16T11:57:36;8.75;80.96
64499;SHT31;51087;55.718;21.122;2023-04-16T12:00:03;8.48;80.90
64499;SHT31;51087;55.718;21.122;2023-04-16T12:03:01;8.33;82.22
64499;SHT31;51087;55.718;21.122;2023-04-16T12:05:29;8.44;82.14
64499;SHT31;51087;55.718;21.122;2023-04-16T12:07:59;8.37;83.27
64499;SHT31;51087;55.718;21.122;2023-04-16T12:10:25;8.73;82.09
64499;SHT31;51087;55.718;21.122;2023-04-16T12:12:51;8.83;82.35
64499;SHT31;51087;55.718;21.122;2023-04-16T12:15:17;9.06;80.69
64499;SHT31;51087;55.718;21.122;2023-04-16T12:17:42;9.21;80.82
64499;SHT31;51087;55.718;21.122;2023-04-16T12:20:10;9.28;80.18
64499;SHT31;51087;55.718;21.122;2023-04-16T12:22:36;9.18;80.89
64499;SHT31;51087;55.718;21.122;2023-04-16T12:25:07;8.89;81.83
64499;SHT31;51087;55.718;21.122;2023-04-16T12:27:51;9.00;81.45
64499;SHT31;51087;55.718;21.122;2023-04-16T12:30:18;8.86;81.61
64499;SHT31;51087;55.718;21.122;2023-04-16T12:32:47;8.93;80.44
64499;SHT31;51087;55.718;21.122;2023-04-16T12:35:13;9.01;80.27
64499;SHT31;51087;55.718;21.122;2023-04-16T12:37:53;9.04;80.41
64499;SHT31;51087;55.718;21.122;2023-04-16T12:40:18;9.17;80.61
64499;SHT31;51087;55.718;21.122;2023-04-16T12:42:43;9.24;81.77
64499;SHT31;51087;55.718;21.122;2023-04-16T12:45:10;9.63;80.89
64499;SHT31;51087;55.718;21.122;2023-04-16T12:47:35;9.68;80.04
64499;SHT31;51087;55.718;21.122;2023-04-16T12:50:01;9.96;78.84
64499;SHT31;51087;55.718;21.122;2023-04-16T12:52:27;10.03;76.53
64499;SHT31;51087;55.718;21.122;2023-04-16T12:54:54;9.96;76.08
64499;SHT31;51087;55.718;21.122;2023-04-16T12:57:19;9.82;77.57
64499;SHT31;51087;55.718;21.122;2023-04-16T12:59:46;10.04;76.66
64499;SHT31;51087;55.718;21.122;2023-04-16T13:02:13;10.23;75.68
64499;SHT31;51087;55.718;21.122;2023-04-16T13:04:38;10.14;75.70
64499;SHT31;51087;55.718;21.122;2023-04-16T13:07:05;10.24;76.03
64499;SHT31;51087;55.718;21.122;2023-04-16T13:09:30;10.45;76.60
64499;SHT31;51087;55.718;21.122;2023-04-16T13:11:56;10.16;76.09
64499;SHT31;51087;55.718;21.122;2023-04-16T13:14:21;10.06;76.45
64499;SHT31;51087;55.718;21.122;2023-04-16T13:16:46;9.86;76.26
64499;SHT31;51087;55.718;21.122;2023-04-16T13:19:13;9.49;77.13
64499;SHT31;51087;55.718;21.122;2023-04-16T13:21:40;9.31;77.72
64499;SHT31;51087;55.718;21.122;2023-04-16T13:24:05;8.94;78.02
64499;SHT31;51087;55.718;21.122;2023-04-16T13:26:33;9.30;76.39
64499;SHT31;51087;55.718;21.122;2023-04-16T13:28:59;9.10;76.98
64499;SHT31;51087;55.718;21.122;2023-04-16T13:31:25;9.24;76.84
64499;SHT31;51087;55.718;21.122;2023-04-16T13:33:50;9.28;78.10
64499;SHT31;51087;55.718;21.122;2023-04-16T13:36:16;9.18;78.32
64499;SHT31;51087;55.718;21.122;2023-04-16T13:38:41;9.41;77.05
64499;SHT31;51087;55.718;21.122;2023-04-16T13:41:07;9.26;78.13
64499;SHT31;51087;55.718;21.122;2023-04-16T13:43:32;9.11;79.33
64499;SHT31;51087;55.718;21.122;2023-04-16T13:45:58;9.06;79.05
64499;SHT31;51087;55.718;21.122;2023-04-16T13:48:25;8.86;80.18
64499;SHT31;51087;55.718;21.122;2023-04-16T13:50:50;8.77;80.53
64499;SHT31;51087;55.718;21.122;2023-04-16T13:53:16;8.69;80.74
64499;SHT31;51087;55.718;21.122;2023-04-16T13:55:42;8.76;80.77
64499;SHT31;51087;55.718;21.122;2023-04-16T13:58:07;8.52;80.38
64499;SHT31;51087;55.718;21.122;2023-04-16T14:00:33;8.45;81.18
64499;SHT31;51087;55.718;21.122;2023-04-16T14:02:58;8.49;80.46
64499;SHT31;51087;55.718;21.122;2023-04-16T14:05:24;8.68;81.02
64499;SHT31;51087;55.718;21.122;2023-04-16T14:07:50;8.75;80.52
64499;SHT31;51087;55.718;21.122;2023-04-16T14:10:16;8.84;79.48
64499;SHT31;51087;55.718;21.122;2023-04-16T14:12:42;8.84;78.92
64499;SHT31;51087;55.718;21.122;2023-04-16T14:15:08;8.90;79.39
64499;SHT31;51087;55.718;21.122;2023-04-16T14:17:34;8.99;79.21
64499;SHT31;51087;55.718;21.122;2023-04-16T14:20:03;9.01;77.91
64499;SHT31;51087;55.718;21.122;2023-04-16T14:22:30;9.18;78.85
64499;SHT31;51087;55.718;21.122;2023-04-16T14:24:56;9.31;79.39
64499;SHT31;51087;55.718;21.122;2023-04-16T14:27:22;9.42;78.54
64499;SHT31;51087;55.718;21.122;2023-04-16T14:29:47;9.61;77.94
64499;SHT31;51087;55.718;21.122;2023-04-16T14:32:13;9.79;77.92
64499;SHT31;51087;55.718;21.122;2023-04-16T14:34:38;9.65;77.65
64499;SHT31;51087;55.718;21.122;2023-04-16T14:37:04;9.56;76.56
64499;SHT31;51087;55.718;21.122;2023-04-16T14:39:29;9.27;78.23
64499;SHT31;51087;55.718;21.122;2023-04-16T14:41:55;9.27;78.96
64499;SHT31;51087;55.718;21.122;2023-04-16T14:44:23;9.09;78.35
64499;SHT31;51087;55.718;21.122;2023-04-16T14:46:49;8.97;78.55
64499;SHT31;51087;55.718;21.122;2023-04-16T14:49:14;8.80;78.24
64499;SHT31;51087;55.718;21.122;2023-04-16T14:51:40;8.77;78.44
64499;SHT31;51087;55.718;21.122;2023-04-16T14:54:06;8.52;78.84
64499;SHT31;51087;55.718;21.122;2023-04-16T14:56:31;8.48;79.70
64499;SHT31;51087;55.718;21.122;2023-04-16T14:58:57;8.37;79.58
64499;SHT31;51087;55.718;21.122;2023-04-16T15:01:22;8.28;80.12
64499;SHT31;51087;55.718;21.122;2023-04-16T15:03:48;8.24;80.02
64499;SHT31;51087;55.718;21.122;2023-04-16T15:06:14;8.13;80.00
64499;SHT31;51087;55.718;21.122;2023-04-16T15:08:40;8.15;80.86
64499;SHT31;51087;55.718;21.122;2023-04-16T15:11:05;8.06;81.53
64499;SHT31;51087;55.718;21.122;2023-04-16T15:13:31;8.06;81.76
64499;SHT31;51087;55.718;21.122;2023-04-16T15:15:59;7.94;81.64
64499;SHT31;51087;55.718;21.122;2023-04-16T15:18:26;7.94;82.07
64499;SHT31;51087;55.718;21.122;2023-04-16T15:20:52;8.06;81.21
64499;SHT31;51087;55.718;21.122;2023-04-16T15:23:18;8.06;80.83
64499;SHT31;51087;55.718;21.122;2023-04-16T15:25:44;7.87;81.34
64499;SHT31;51087;55.718;21.122;2023-04-16T15:28:09;7.93;81.50
64499;SHT31;51087;55.718;21.122;2023-04-16T15:30:36;7.83;82.36
64499;SHT31;51087;55.718;21.122;2023-04-16T15:33:02;7.82;82.31
64499;SHT31;51087;55.718;21.122;2023-04-16T15:35:28;7.98;81.73
64499;SHT31;51087;55.718;21.122;2023-04-16T15:37:53;7.89;82.17
64499;SHT31;51087;55.718;21.122;2023-04-16T15:40:20;7.89;81.86
64499;SHT31;51087;55.718;21.122;2023-04-16T15:42:46;7.85;82.15